createdAt,value
2022-08-05T00:00:31.853Z,70.38
2022-08-05T00:01:36.204Z,68.62
2022-08-05T00:02:35.313Z,67.57
2022-08-05T00:03:35.490Z,68.74
2022-08-05T00:04:35.512Z,69.29
2022-08-05T00:06:05.692Z,68.7
2022-08-05T00:06:36.726Z,68.05
2022-08-05T00:08:01.145Z,67.53
2022-08-05T00:08:39.169Z,66.7
2022-08-05T00:09:38.265Z,68.25
2022-08-05T00:10:40.608Z,68.74
2022-08-05T00:11:49.584Z,69.18
2022-08-05T00:12:56.820Z,70.43
2022-08-05T00:13:44.492Z,71.97
2022-08-05T00:14:45.295Z,72.7
2022-08-05T00:15:58.012Z,72.97
2022-08-05T00:16:53.014Z,71.59
2022-08-05T00:17:52.075Z,72.18
2022-08-05T00:18:52.062Z,73.56
2022-08-05T00:20:02.694Z,73.67
2022-08-05T00:20:55.324Z,74.4
2022-08-05T00:21:55.168Z,75.78
2022-08-05T00:22:59.641Z,76.41
2022-08-05T00:24:09.794Z,76.89
2022-08-05T00:25:03.520Z,75.85
2022-08-05T00:26:05.872Z,75.84
2022-08-05T00:27:13.948Z,74.97
2022-08-05T00:28:08.563Z,74.92
2022-08-05T00:29:09.603Z,76.52
2022-08-05T00:30:11.593Z,74.78
2022-08-05T00:31:10.883Z,74.13
2022-08-05T00:32:13.195Z,74.97
2022-08-05T00:33:15.421Z,76.01
2022-08-05T00:34:56.931Z,76.5
2022-08-05T00:35:15.893Z,77.2
2022-08-05T00:37:10.421Z,75.99
2022-08-05T00:37:18.291Z,77.37
2022-08-05T00:38:18.313Z,77.1
2022-08-05T00:39:20.547Z,75.52
2022-08-05T00:40:27.550Z,76.4
2022-08-05T00:41:51.689Z,76.85
2022-08-05T00:42:36.635Z,76.97
2022-08-05T00:43:46.582Z,76.85
2022-08-05T00:44:36.860Z,76.72
2022-08-05T00:45:42.818Z,76.65
2022-08-05T00:46:42.597Z,77.71
2022-08-05T00:47:53.193Z,78.02
2022-08-05T00:48:51.003Z,78.96
2022-08-05T00:49:51.728Z,79.9
2022-08-05T00:50:50.417Z,80.38
2022-08-05T00:51:50.956Z,79.93
2022-08-05T00:52:48.953Z,79.25
2022-08-05T00:54:02.118Z,80.44
2022-08-05T00:54:50.043Z,78.73
2022-08-05T00:55:51.586Z,77.73
2022-08-05T00:56:51.419Z,77.41
2022-08-05T00:57:55.409Z,77.87
2022-08-05T00:58:50.914Z,77.76
2022-08-05T00:59:50.867Z,77.89
2022-08-05T01:00:50.972Z,78.82
2022-08-05T01:01:50.941Z,78.91
2022-08-05T01:02:50.885Z,79.23
2022-08-05T01:03:50.946Z,80.08
2022-08-05T01:04:50.942Z,78.91
2022-08-05T01:05:51.632Z,77.51
2022-08-05T01:06:52.349Z,77.37
2022-08-05T01:08:30.768Z,77.58
2022-08-05T01:08:53.289Z,76.75
2022-08-05T01:09:55.556Z,76.72
2022-08-05T01:12:01.926Z,75.6
2022-08-05T01:13:13.074Z,74.89
2022-08-05T01:15:35.011Z,76.32
2022-08-05T01:16:10.304Z,75.72
2022-08-05T01:17:09.196Z,75.67
2022-08-05T01:18:10.250Z,75.84
2022-08-05T01:22:24.110Z,78.59
2022-08-05T01:24:26.243Z,76.17
2022-08-05T01:27:34.266Z,76.54
2022-08-05T01:28:35.486Z,77.62
2022-08-05T01:29:31.516Z,77.95
2022-08-05T01:30:35.263Z,78.47
2022-08-05T01:31:42.785Z,80.59
2022-08-05T01:32:38.978Z,81.44
2022-08-05T01:33:49.283Z,79.34
2022-08-05T01:34:47.495Z,78.56
2022-08-05T01:35:51.874Z,79.6
2022-08-05T01:36:54.865Z,78.13
2022-08-05T01:37:51.742Z,78.75
2022-08-05T01:38:52.034Z,78.27
2022-08-05T01:39:52.838Z,78.74
2022-08-05T01:40:52.185Z,76.23
2022-08-05T01:41:53.097Z,76.56
2022-08-05T01:42:52.998Z,76.36
2022-08-05T01:43:52.200Z,75.91
2022-08-05T01:44:53.832Z,76.43
2022-08-05T01:45:56.326Z,76.1
2022-08-05T01:46:55.307Z,76.48
2022-08-05T01:47:55.535Z,77.97
2022-08-05T01:48:54.850Z,77.8
2022-08-05T01:50:00.253Z,77.36
2022-08-05T01:50:55.515Z,77.88
2022-08-05T01:51:58.348Z,79.31
2022-08-05T01:52:59.326Z,78.52
2022-08-05T01:53:58.991Z,77.05
2022-08-05T01:54:58.850Z,77.77
2022-08-05T01:55:59.800Z,79.93
2022-08-05T01:58:10.382Z,79.64
2022-08-05T01:58:11.342Z,78.79
2022-08-05T01:59:11.690Z,81.03
2022-08-05T02:00:11.957Z,80.91
2022-08-05T02:01:09.299Z,79.88
2022-08-05T02:02:10.760Z,79.42
2022-08-05T02:04:10.832Z,77.58
2022-08-05T02:05:12.362Z,77.49
2022-08-05T02:06:36.949Z,76.22
2022-08-05T02:07:12.831Z,76.94
2022-08-05T02:08:13.919Z,76.84
2022-08-05T02:09:16.729Z,75.8
2022-08-05T02:10:17.690Z,76.39
2022-08-05T02:11:20.691Z,77.57
2022-08-05T02:14:28.871Z,78.1
2022-08-05T02:16:34.593Z,77.29
2022-08-05T02:18:31.604Z,79.46
2022-08-05T02:19:47.612Z,77.11
2022-08-05T02:20:43.990Z,78.97
2022-08-05T02:21:49.269Z,79.19
2022-08-05T02:22:48.119Z,80.13
2022-08-05T02:23:51.626Z,81.47
2022-08-05T02:24:51.516Z,81.19
2022-08-05T02:25:50.550Z,80.48
2022-08-05T02:26:51.908Z,78.17
2022-08-05T02:27:58.177Z,79.94
2022-08-05T02:28:52.292Z,79.96
2022-08-05T02:29:59.810Z,79.11
2022-08-05T02:30:56.682Z,80.18
2022-08-05T02:31:56.603Z,79.05
2022-08-05T02:32:55.724Z,79.94
2022-08-05T02:33:58.286Z,79.01
2022-08-05T02:34:55.267Z,77.25
2022-08-05T02:35:59.110Z,78.7
2022-08-05T02:36:59.810Z,76.26
2022-08-05T02:38:02.323Z,74.08
2022-08-05T02:39:02.526Z,72.78
2022-08-05T02:40:01.987Z,71.88
2022-08-05T02:41:01.365Z,71.58
2022-08-05T02:42:02.655Z,72.25
2022-08-05T02:43:02.405Z,70.8
2022-08-05T02:44:12.405Z,72.77
2022-08-05T02:45:07.100Z,72.64
2022-08-05T02:46:06.335Z,73.51
2022-08-05T02:47:07.551Z,72.95
2022-08-05T02:48:12.565Z,71.07
2022-08-05T02:49:11.214Z,70.64
2022-08-05T02:50:12.048Z,69.92
2022-08-05T02:51:10.230Z,68.98
2022-08-05T02:52:13.689Z,67.03
2022-08-05T02:53:11.717Z,68.16
2022-08-05T02:54:12.080Z,69.15
2022-08-05T02:55:14.178Z,67.56
2022-08-05T02:56:18.738Z,66.49
2022-08-05T02:58:11.718Z,65.93
2022-08-05T02:58:20.891Z,65.77
2022-08-05T02:59:18.910Z,65.51
2022-08-05T03:00:18.662Z,65.07
2022-08-05T03:01:22.920Z,64.82
2022-08-05T03:02:24.464Z,66.4
2022-08-05T03:03:24.253Z,65.63
2022-08-05T03:04:24.258Z,66.17
2022-08-05T03:06:54.853Z,66.59
2022-08-05T03:06:57.087Z,66.22
2022-08-05T03:08:00.102Z,66.61
2022-08-05T03:08:30.162Z,66.38
2022-08-05T03:09:38.231Z,66.52
2022-08-05T03:10:30.359Z,66.01
2022-08-05T03:11:53.518Z,66.23
2022-08-05T03:12:35.788Z,65.72
2022-08-05T03:13:51.896Z,65.09
2022-08-05T03:14:33.889Z,63.96
2022-08-05T03:15:33.856Z,64
2022-08-05T03:16:33.685Z,64.5
2022-08-05T03:17:33.917Z,64.05
2022-08-05T03:18:38.558Z,63.51
2022-08-05T03:19:38.636Z,63.37
2022-08-05T03:20:38.747Z,62.77
2022-08-05T03:21:41.690Z,62.92
2022-08-05T03:22:44.018Z,63.48
2022-08-05T03:23:42.901Z,64.13
2022-08-05T03:24:43.079Z,63.75
2022-08-05T03:26:04.743Z,62.99
2022-08-05T03:26:49.316Z,62.82
2022-08-05T03:27:59.236Z,63.44
2022-08-05T03:28:47.571Z,63.57
2022-08-05T03:30:07.305Z,64.63
2022-08-05T03:30:49.128Z,63.13
2022-08-05T03:31:56.009Z,62.38
2022-08-05T03:32:49.274Z,61.94
2022-08-05T03:33:52.898Z,61.53
2022-08-05T03:34:51.017Z,61.9
2022-08-05T03:35:51.687Z,61.93
2022-08-05T03:36:50.293Z,62.79
2022-08-05T03:37:49.802Z,61.91
2022-08-05T03:38:52.564Z,61.64
2022-08-05T03:39:58.653Z,62.79
2022-08-05T03:40:51.103Z,62.88
2022-08-05T03:41:52.535Z,62.1
2022-08-05T03:42:52.602Z,62
2022-08-05T03:44:08.633Z,61.71
2022-08-05T03:44:52.431Z,61.4
2022-08-05T03:45:55.168Z,61.38
2022-08-05T03:46:54.920Z,61.01
2022-08-05T03:47:56.841Z,61.44
2022-08-05T03:48:54.919Z,61.71
2022-08-05T03:49:55.094Z,61.3
2022-08-05T03:52:38.841Z,60.91
2022-08-05T03:55:34.007Z,61.35
2022-08-05T03:55:53.787Z,61.09
2022-08-05T03:56:01.121Z,60.51
2022-08-05T03:56:10.514Z,60.06
2022-08-05T03:57:16.453Z,60.34
2022-08-05T03:58:09.714Z,61.25
2022-08-05T03:59:09.297Z,60.4
2022-08-05T04:00:08.234Z,60.88
2022-08-05T04:01:08.478Z,60.36
2022-08-05T04:02:14.728Z,60.83
2022-08-05T04:03:28.631Z,61.24
2022-08-05T04:04:16.907Z,61.63
2022-08-05T04:05:19.493Z,61.08
2022-08-05T04:06:20.562Z,61.64
2022-08-05T04:07:20.283Z,62.04
2022-08-05T04:08:36.094Z,61.87
2022-08-05T04:09:26.443Z,62.66
2022-08-05T04:10:23.833Z,62.93
2022-08-05T04:11:24.621Z,62.88
2022-08-05T04:12:26.417Z,62.72
2022-08-05T04:13:49.401Z,62.76
2022-08-05T04:14:30.392Z,63.08
2022-08-05T04:15:33.290Z,62.9
2022-08-05T04:16:33.184Z,63.41
2022-08-05T04:17:55.806Z,62.66
2022-08-05T04:18:35.974Z,63.82
2022-08-05T04:20:38.593Z,63.23
2022-08-05T04:22:09.009Z,63.64
2022-08-05T04:22:40.100Z,63.11
2022-08-05T04:24:05.827Z,63.06
2022-08-05T04:24:44.444Z,62.95
2022-08-05T04:25:57.301Z,63.64
2022-08-05T04:26:45.207Z,63.4
2022-08-05T04:27:56.859Z,63.61
2022-08-05T04:28:51.193Z,64.24
2022-08-05T04:29:49.529Z,64.48
2022-08-05T04:30:49.380Z,64.4
2022-08-05T04:31:49.741Z,64.8
2022-08-05T04:32:49.733Z,65.42
2022-08-05T04:34:19.378Z,63.67
2022-08-05T04:34:51.192Z,63.98
2022-08-05T04:36:16.798Z,64.49
2022-08-05T04:36:55.735Z,64.08
2022-08-05T04:38:02.215Z,64.2
2022-08-05T04:38:57.946Z,65.33
2022-08-05T04:39:57.995Z,64.53
2022-08-05T04:40:57.982Z,65.02
2022-08-05T04:41:58.260Z,66.62
2022-08-05T04:42:57.960Z,66.89
2022-08-05T04:43:58.048Z,66.13
2022-08-05T04:44:58.116Z,67.15
2022-08-05T04:45:58.121Z,66.02
2022-08-05T04:46:58.986Z,66.55
2022-08-05T04:49:01.826Z,68.28
2022-08-05T04:50:11.070Z,66.56
2022-08-05T04:51:11.435Z,66.01
2022-08-05T04:52:08.179Z,66.55
2022-08-05T04:53:09.195Z,68.03
2022-08-05T04:54:08.147Z,67.6
2022-08-05T04:55:14.016Z,67.05
2022-08-05T04:56:32.275Z,67.86
2022-08-05T04:57:13.141Z,68.43
2022-08-05T04:58:14.593Z,67.45
2022-08-05T04:59:21.923Z,66.69
2022-08-05T05:00:15.845Z,67.05
2022-08-05T05:01:15.511Z,67.54
2022-08-05T05:02:37.739Z,67.33
2022-08-05T05:03:17.863Z,66.71
2022-08-05T05:04:16.868Z,66.41
2022-08-05T05:05:28.542Z,68.4
2022-08-05T05:06:40.698Z,67.81
2022-08-05T05:07:29.529Z,67.75
2022-08-05T05:08:30.104Z,67.08
2022-08-05T05:09:27.032Z,67.57
2022-08-05T05:10:27.274Z,68.27
2022-08-05T05:11:33.298Z,68.64
2022-08-05T05:12:28.531Z,67.41
2022-08-05T05:13:32.390Z,68.85
2022-08-05T05:14:32.006Z,68.48
2022-08-05T05:15:57.395Z,68.5
2022-08-05T05:16:32.375Z,68.25
2022-08-05T05:18:34.293Z,68.13
2022-08-05T05:19:36.961Z,67.57
2022-08-05T05:20:35.610Z,68.64
2022-08-05T05:21:35.672Z,68.2
2022-08-05T05:22:35.885Z,69.11
2022-08-05T05:23:39.007Z,68.24
2022-08-05T05:24:59.042Z,67.79
2022-08-05T05:25:41.346Z,68.8
2022-08-05T05:26:40.429Z,68.06
2022-08-05T05:27:45.528Z,68.61
2022-08-05T05:28:45.071Z,67.52
2022-08-05T05:30:04.497Z,68.8
2022-08-05T05:30:44.478Z,70.28
2022-08-05T05:31:46.686Z,68.11
2022-08-05T05:32:46.479Z,69.65
2022-08-05T05:34:02.203Z,68.83
2022-08-05T05:34:49.960Z,68.9
2022-08-05T05:35:49.682Z,68.75
2022-08-05T05:36:51.245Z,68.63
2022-08-05T05:38:01.285Z,69.13
2022-08-05T05:38:53.939Z,70.1
2022-08-05T05:39:54.007Z,69.48
2022-08-05T05:40:54.197Z,68.67
2022-08-05T05:41:54.514Z,68.97
2022-08-05T05:42:54.238Z,68.38
2022-08-05T05:43:57.420Z,67.95
2022-08-05T05:44:59.547Z,68.16
2022-08-05T05:45:56.643Z,68.53
2022-08-05T05:46:58.086Z,68.69
2022-08-05T05:48:06.129Z,67.03
2022-08-05T05:49:00.157Z,68.46
2022-08-05T05:50:04.315Z,68.76
2022-08-05T05:51:14.940Z,67.77
2022-08-05T05:52:08.111Z,69.92
2022-08-05T05:53:21.052Z,68.23
2022-08-05T05:54:11.636Z,68.83
2022-08-05T05:55:13.644Z,67.86
2022-08-05T05:56:10.830Z,68.43
2022-08-05T05:57:13.441Z,67.24
2022-08-05T05:58:10.898Z,67.64
2022-08-05T05:59:11.018Z,67.74
2022-08-05T06:00:15.710Z,66.78
2022-08-05T06:01:15.334Z,66.99
2022-08-05T06:02:13.415Z,67.11
2022-08-05T06:03:40.198Z,66.69
2022-08-05T06:04:15.111Z,66
2022-08-05T06:05:16.504Z,65.12
2022-08-05T06:06:15.023Z,65.33
2022-08-05T06:07:15.009Z,65.76
2022-08-05T06:08:15.031Z,65.76
2022-08-05T06:09:36.296Z,66.54
2022-08-05T06:10:20.589Z,66.51
2022-08-05T06:11:20.286Z,66.88
2022-08-05T06:12:20.327Z,66.67
2022-08-05T06:13:20.326Z,65.79
2022-08-05T06:14:20.459Z,65.7
2022-08-05T06:15:24.264Z,66.01
2022-08-05T06:16:29.146Z,66.18
2022-08-05T06:17:53.010Z,67.5
2022-08-05T06:18:31.068Z,66.31
2022-08-05T06:19:34.478Z,67.49
2022-08-05T06:20:31.752Z,67.8
2022-08-05T06:21:37.183Z,67.36
2022-08-05T06:22:35.266Z,66.37
2022-08-05T06:23:43.604Z,66.07
2022-08-05T06:24:36.725Z,67.46
2022-08-05T06:26:12.868Z,66.12
2022-08-05T06:26:37.437Z,66.18
2022-08-05T06:28:10.904Z,66.12
2022-08-05T06:28:38.679Z,65.6
2022-08-05T06:29:46.480Z,64.28
2022-08-05T06:30:43.569Z,66.48
2022-08-05T06:31:43.647Z,65.29
2022-08-05T06:32:43.622Z,64.44
2022-08-05T06:34:07.700Z,64.64
2022-08-05T06:34:45.101Z,66.15
2022-08-05T06:36:07.936Z,64.33
2022-08-05T06:36:56.693Z,63.75
2022-08-05T06:37:57.020Z,64.27
2022-08-05T06:38:50.512Z,63.62
2022-08-05T06:39:50.554Z,63.06
2022-08-05T06:40:50.512Z,63.27
2022-08-05T06:41:50.416Z,64.07
2022-08-05T06:42:51.727Z,63.34
2022-08-05T06:43:58.189Z,63.16
2022-08-05T06:44:51.905Z,63.99
2022-08-05T06:46:03.854Z,66.35
2022-08-05T06:46:55.046Z,62.53
2022-08-05T06:48:36.927Z,62.41
2022-08-05T06:48:59.240Z,62.3
2022-08-05T06:50:01.495Z,62.11
2022-08-05T06:50:56.966Z,62.52
2022-08-05T06:51:56.453Z,63.98
2022-08-05T06:52:58.540Z,61.39
2022-08-05T06:53:57.066Z,61.88
2022-08-05T06:54:56.440Z,61.71
2022-08-05T06:55:59.920Z,61.58
2022-08-05T06:57:56.623Z,60.64
2022-08-05T06:58:03.469Z,63.65
2022-08-05T06:58:59.528Z,63.63
2022-08-05T06:59:59.650Z,63.04
2022-08-05T07:01:00.618Z,62.11
2022-08-05T07:01:59.698Z,62.05
2022-08-05T07:02:59.961Z,60.54
2022-08-05T07:04:00.734Z,60.23
2022-08-05T07:04:59.751Z,62.06
2022-08-05T07:06:00.202Z,61.12
2022-08-05T07:06:59.768Z,61.08
2022-08-05T07:07:59.782Z,60.43
2022-08-05T07:09:04.204Z,61.24
2022-08-05T07:10:03.349Z,61.12
2022-08-05T07:11:02.009Z,61.38
2022-08-05T07:12:01.109Z,61.1
2022-08-05T07:13:01.165Z,61.21
2022-08-05T07:14:01.426Z,61.29
2022-08-05T07:15:01.358Z,60.8
2022-08-05T07:16:04.633Z,60.13
2022-08-05T07:18:08.413Z,60.94
2022-08-05T07:18:08.755Z,60.78
2022-08-05T07:19:06.261Z,60.88
2022-08-05T07:21:07.975Z,60.19
2022-08-05T07:22:08.100Z,60.68
2022-08-05T07:23:07.888Z,60.13
2022-08-05T07:24:11.473Z,59.17
2022-08-05T07:25:23.119Z,59.39
2022-08-05T07:26:11.253Z,58.52
2022-08-05T07:27:11.330Z,58.4
2022-08-05T07:28:17.107Z,58.45
2022-08-05T07:29:14.213Z,59.59
2022-08-05T07:30:23.975Z,59.34
2022-08-05T07:31:15.378Z,58.09
2022-08-05T07:32:15.259Z,57.29
2022-08-05T07:33:16.636Z,58.34
2022-08-05T07:34:15.492Z,58.52
2022-08-05T07:36:04.063Z,58.5
2022-08-05T07:36:20.643Z,58.56
2022-08-05T07:37:18.733Z,59.16
2022-08-05T07:38:32.322Z,57.98
2022-08-05T07:39:37.012Z,57.26
2022-08-05T07:40:31.515Z,57.52
2022-08-05T07:42:07.210Z,57.23
2022-08-05T07:42:33.410Z,56.1
2022-08-05T07:43:30.403Z,57.42
2022-08-05T07:44:30.441Z,56.12
2022-08-05T07:45:31.280Z,56.87
2022-08-05T07:46:33.687Z,57.38
2022-08-05T07:47:42.573Z,57.31
2022-08-05T07:49:01.798Z,56.04
2022-08-05T07:49:35.579Z,56.45
2022-08-05T07:50:40.141Z,58.28
2022-08-05T07:51:53.625Z,57.47
2022-08-05T07:52:43.292Z,57.78
2022-08-05T07:53:50.381Z,56.94
2022-08-05T07:54:47.604Z,56.78
2022-08-05T07:56:05.446Z,59.83
2022-08-05T07:57:01.810Z,58.67
2022-08-05T07:57:56.322Z,56.11
2022-08-05T07:58:57.242Z,56.57
2022-08-05T07:59:55.658Z,55.64
2022-08-05T08:00:56.025Z,56.28
2022-08-05T08:01:57.495Z,56.83
2022-08-05T08:03:15.016Z,55.6
2022-08-05T08:03:57.072Z,55.47
2022-08-05T08:04:57.218Z,56.78
2022-08-05T08:05:57.213Z,54.89
2022-08-05T08:06:57.134Z,56.02
2022-08-05T08:07:59.850Z,56.75
2022-08-05T08:08:57.301Z,56.69
2022-08-05T08:09:57.215Z,56.44
2022-08-05T08:10:57.328Z,56.27
2022-08-05T08:12:00.090Z,56.22
2022-08-05T08:13:00.709Z,56.27
2022-08-05T08:14:01.288Z,54.95
2022-08-05T08:15:02.439Z,55.06
2022-08-05T08:16:34.606Z,58.94
2022-08-05T08:17:01.855Z,55.78
2022-08-05T08:18:03.512Z,55.01
2022-08-05T08:19:03.510Z,54.88
2022-08-05T08:20:42.768Z,55.51
2022-08-05T08:21:09.858Z,56.68
2022-08-05T08:22:09.383Z,55.24
2022-08-05T08:24:02.164Z,55.94
2022-08-05T08:24:14.239Z,55.2
2022-08-05T08:25:15.654Z,56.16
2022-08-05T08:26:14.034Z,56.34
2022-08-05T08:27:16.616Z,55.92
2022-08-05T08:28:18.504Z,54.69
2022-08-05T08:29:45.155Z,55.65
2022-08-05T08:30:27.617Z,55.13
2022-08-05T08:31:21.195Z,54.79
2022-08-05T08:32:27.744Z,56.35
2022-08-05T08:33:25.182Z,54.41
2022-08-05T08:34:30.429Z,52.93
2022-08-05T08:35:35.179Z,53.7
2022-08-05T08:36:47.656Z,55.08
2022-08-05T08:37:34.248Z,54.33
2022-08-05T08:38:35.718Z,56.06
2022-08-05T08:39:37.608Z,52.72
2022-08-05T08:40:35.362Z,52.8
2022-08-05T08:41:52.344Z,52.79
2022-08-05T08:42:50.244Z,55.18
2022-08-05T08:45:20.311Z,53.77
2022-08-05T08:45:24.352Z,54.73
2022-08-05T08:45:41.855Z,54.22
2022-08-05T08:46:41.723Z,53.99
2022-08-05T08:48:07.112Z,54.33
2022-08-05T08:49:06.064Z,53.89
2022-08-05T08:50:22.384Z,53.43
2022-08-05T08:51:03.615Z,53.5
2022-08-05T08:53:00.500Z,53.36
2022-08-05T08:53:57.931Z,55.04
2022-08-05T08:54:57.844Z,51.78
2022-08-05T08:56:03.748Z,52.21
2022-08-05T08:57:02.382Z,53.37
2022-08-05T08:58:02.549Z,52.81
2022-08-05T08:59:04.817Z,53.1
2022-08-05T09:00:06.800Z,52.13
2022-08-05T09:01:07.407Z,56.75
2022-08-05T09:02:08.671Z,54
2022-08-05T09:03:08.106Z,52.77
2022-08-05T09:04:07.574Z,52.47
2022-08-05T09:05:17.835Z,51.16
2022-08-05T09:06:12.124Z,51.69
2022-08-05T09:07:28.250Z,51.42
2022-08-05T09:08:15.477Z,52.91
2022-08-05T09:09:15.715Z,53.19
2022-08-05T09:10:15.722Z,52.05
2022-08-05T09:11:15.838Z,52.64
2022-08-05T09:12:20.670Z,52.29
2022-08-05T09:13:19.830Z,52.9
2022-08-05T09:14:58.530Z,52.58
2022-08-05T09:15:22.167Z,54.13
2022-08-05T09:16:22.243Z,53.54
2022-08-05T09:17:42.809Z,51.79
2022-08-05T09:18:25.470Z,50.54
2022-08-05T09:19:27.703Z,50.8
2022-08-05T09:20:36.312Z,53.62
2022-08-05T09:22:23.489Z,52.48
2022-08-05T09:23:43.432Z,55.59
2022-08-05T09:24:38.293Z,52.94
2022-08-05T09:26:01.958Z,50.76
2022-08-05T09:26:36.876Z,50.93
2022-08-05T09:28:05.497Z,51.37
2022-08-05T09:28:39.763Z,51.2
2022-08-05T09:29:47.615Z,50.71
2022-08-05T09:30:42.550Z,51.6
2022-08-05T09:32:40.193Z,52.09
2022-08-05T09:32:46.353Z,51.29
2022-08-05T09:33:47.821Z,50.92
2022-08-05T09:36:59.775Z,51.67
2022-08-05T09:38:12.009Z,51.88
2022-08-05T09:38:59.615Z,50.34
2022-08-05T09:39:58.469Z,50.72
2022-08-05T09:42:03.460Z,50.48
2022-08-05T09:43:00.565Z,51.34
2022-08-05T09:44:00.191Z,52.9
2022-08-05T09:46:05.103Z,52.74
2022-08-05T09:46:06.378Z,50.67
2022-08-05T09:49:22.141Z,51.4
2022-08-05T09:50:12.603Z,51.63
2022-08-05T09:51:15.892Z,50.75
2022-08-05T09:52:22.564Z,52.67
2022-08-05T09:53:25.763Z,51.26
2022-08-05T09:55:56.675Z,51.54
2022-08-05T09:56:26.148Z,50.36
2022-08-05T09:58:25.272Z,50.95
2022-08-05T09:59:27.614Z,51.52
2022-08-05T10:00:24.773Z,53.14
2022-08-05T10:01:31.881Z,52.23
2022-08-05T10:02:33.477Z,50.94
2022-08-05T10:03:38.643Z,55.83
2022-08-05T10:05:35.453Z,51.33
2022-08-05T10:06:35.221Z,52.54
2022-08-05T10:08:38.421Z,55.04
2022-08-05T10:11:40.312Z,51.61
2022-08-05T10:13:47.586Z,50.22
2022-08-05T10:14:45.517Z,51.24
2022-08-05T10:15:45.497Z,51.44
2022-08-05T10:16:52.785Z,50.63
2022-08-05T10:18:55.386Z,51.86
2022-08-05T10:20:04.320Z,49.91
2022-08-05T10:20:58.844Z,51.48
2022-08-05T10:21:58.282Z,52.7
2022-08-05T10:22:58.657Z,53.86
2022-08-05T10:24:00.462Z,59.66
2022-08-05T10:24:58.488Z,54.31
2022-08-05T10:25:59.620Z,58.13
2022-08-05T10:27:00.570Z,52
2022-08-05T10:28:16.819Z,52.6
2022-08-05T10:28:59.530Z,52.86
2022-08-05T10:30:41.540Z,51.76
2022-08-05T10:32:52.972Z,53.8
2022-08-05T10:32:54.347Z,53.84
2022-08-05T10:33:05.626Z,54.36
2022-08-05T10:34:07.165Z,51.6
2022-08-05T10:35:06.140Z,51.55
2022-08-05T10:36:06.069Z,49.69
2022-08-05T10:37:06.168Z,50.53
2022-08-05T10:38:08.288Z,51.16
2022-08-05T10:39:10.318Z,50.9
2022-08-05T10:41:23.572Z,53.22
2022-08-05T10:42:32.452Z,51.17
2022-08-05T10:44:19.137Z,50.98
2022-08-05T10:45:41.674Z,51.04
2022-08-05T10:46:23.810Z,51.88
2022-08-05T10:47:27.126Z,50.86
2022-08-05T10:48:34.290Z,51.61
2022-08-05T10:49:27.052Z,53.04
2022-08-05T10:50:36.220Z,50.6
2022-08-05T10:51:48.680Z,51.03
2022-08-05T10:52:39.602Z,51.63
2022-08-05T10:54:56.137Z,55.69
2022-08-05T10:56:49.268Z,55.15
2022-08-05T10:57:46.507Z,54
2022-08-05T10:58:50.528Z,54.31
2022-08-05T11:00:03.338Z,54.48
2022-08-05T11:00:54.935Z,53.84
2022-08-05T11:04:58.476Z,57.02
2022-08-05T11:07:03.903Z,54.89
2022-08-05T11:08:21.683Z,55.1
2022-08-05T11:15:21.365Z,55.21
2022-08-05T11:16:22.808Z,55.49
2022-08-05T11:18:09.797Z,53.68
2022-08-05T11:18:29.749Z,54.36
2022-08-05T11:20:16.641Z,53.83
2022-08-05T11:21:31.586Z,56.44
2022-08-05T11:24:32.292Z,52
2022-08-05T11:26:04.486Z,52.76
2022-08-05T11:26:33.644Z,53.01
2022-08-05T11:27:50.860Z,54.82
2022-08-05T11:28:37.374Z,54.04
2022-08-05T11:29:34.791Z,56.09
2022-08-05T11:31:53.902Z,55.69
2022-08-05T11:32:36.764Z,55.68
2022-08-05T11:34:39.435Z,55.2
2022-08-05T11:36:43.857Z,53.14
2022-08-05T11:38:28.003Z,53.63
2022-08-05T11:39:49.908Z,55.32
2022-08-05T11:42:01.658Z,54.94
2022-08-05T11:42:51.498Z,54.06
2022-08-05T11:45:00.791Z,54.31
2022-08-05T11:46:30.616Z,52.47
2022-08-05T11:47:10.450Z,53.55
2022-08-05T11:48:07.743Z,53.79
2022-08-05T11:49:09.972Z,54.1
2022-08-05T11:50:08.260Z,54.76
2022-08-05T11:51:08.297Z,55.77
2022-08-05T11:52:11.710Z,56
2022-08-05T11:53:09.819Z,56.34
2022-08-05T11:54:08.857Z,55.59
2022-08-05T11:55:11.438Z,55.8
2022-08-05T11:56:11.340Z,55.77
2022-08-05T11:57:24.497Z,56.59
2022-08-05T11:58:13.185Z,56
2022-08-05T11:59:21.488Z,55.6
2022-08-05T12:00:28.704Z,55.64
2022-08-05T12:01:22.210Z,54.94
2022-08-05T12:03:28.406Z,53.88
2022-08-05T12:04:23.680Z,55.11
2022-08-05T12:05:32.316Z,56.43
2022-08-05T12:06:27.077Z,54.63
2022-08-05T12:08:02.762Z,54.56
2022-08-05T12:08:28.146Z,54.69
2022-08-05T12:09:52.660Z,53.8
2022-08-05T12:10:39.068Z,55.38
2022-08-05T12:11:40.326Z,54.14
2022-08-05T12:12:33.763Z,54.96
2022-08-05T12:13:49.584Z,53.15
2022-08-05T12:14:38.065Z,53.46
2022-08-05T12:15:43.081Z,53.92
2022-08-05T12:16:45.487Z,53.54
2022-08-05T12:18:02.721Z,53.37
2022-08-05T12:18:49.033Z,53.19
2022-08-05T12:20:26.488Z,54.85
2022-08-05T12:20:49.698Z,54.04
2022-08-05T12:21:50.650Z,53.83
2022-08-05T12:22:51.817Z,54.64
2022-08-05T12:24:52.314Z,52.82
2022-08-05T12:25:53.376Z,53.6
2022-08-05T12:26:53.950Z,55.32
2022-08-05T12:27:52.866Z,56.06
2022-08-05T12:28:52.355Z,54.27
2022-08-05T12:30:03.353Z,52.34
2022-08-05T12:30:56.785Z,51.56
2022-08-05T12:32:01.954Z,53.58
2022-08-05T12:33:07.196Z,52.01
2022-08-05T12:35:05.857Z,52.78
2022-08-05T12:36:08.146Z,55.09
2022-08-05T12:37:09.366Z,55.46
2022-08-05T12:38:06.381Z,52.67
2022-08-05T12:39:07.053Z,51.96
2022-08-05T12:40:10.818Z,53.19
2022-08-05T12:41:13.507Z,52.46
2022-08-05T12:42:14.895Z,56.12
2022-08-05T12:43:11.681Z,52.48
2022-08-05T12:44:14.263Z,53.74
2022-08-05T12:45:12.940Z,49.31
2022-08-05T12:46:23.640Z,51.94
2022-08-05T12:48:27.743Z,55.38
2022-08-05T12:49:20.351Z,55.54
2022-08-05T12:50:22.727Z,54.52
2022-08-05T12:52:13.117Z,52.67
2022-08-05T12:52:29.573Z,51.83
2022-08-05T12:53:36.976Z,55.75
2022-08-05T12:54:33.435Z,58.02
2022-08-05T12:55:33.066Z,55.28
2022-08-05T12:56:34.116Z,54.63
2022-08-05T12:58:50.633Z,50.18
2022-08-05T12:58:51.342Z,56.05
2022-08-05T13:02:02.062Z,53.24
2022-08-05T13:02:02.672Z,54.53
2022-08-05T13:02:40.237Z,53.3
2022-08-05T13:03:42.371Z,52.42
2022-08-05T13:04:41.873Z,53.41
2022-08-05T13:05:46.641Z,51.31
2022-08-05T13:06:51.910Z,53.13
2022-08-05T13:07:59.463Z,54.43
2022-08-05T13:08:52.905Z,52.55
2022-08-05T13:09:57.063Z,52.54
2022-08-05T13:11:00.255Z,51.57
2022-08-05T13:12:58.433Z,55.23
2022-08-05T13:14:05.835Z,56.68
2022-08-05T13:15:05.510Z,54.1
2022-08-05T13:16:03.582Z,54.63
2022-08-05T13:17:07.475Z,55.14
2022-08-05T13:18:03.935Z,54.96
2022-08-05T13:19:03.958Z,55.54
2022-08-05T13:21:08.327Z,54.27
2022-08-05T13:22:07.509Z,54.79
2022-08-05T13:23:09.246Z,54.12
2022-08-05T13:24:09.194Z,52.98
2022-08-05T13:25:19.519Z,52.58
2022-08-05T13:26:14.260Z,50.89
2022-08-05T13:27:35.574Z,54.69
2022-08-05T13:28:14.923Z,55.15
2022-08-05T13:29:18.970Z,56.08
2022-08-05T13:30:36.030Z,52.49
2022-08-05T13:31:19.221Z,52.51
2022-08-05T13:32:29.321Z,51.76
2022-08-05T13:34:21.230Z,54.12
2022-08-05T13:34:26.056Z,53.11
2022-08-05T13:35:31.304Z,53.15
2022-08-05T13:36:24.664Z,53.43
2022-08-05T13:37:34.497Z,53.94
2022-08-05T13:38:30.686Z,52.19
2022-08-05T13:40:14.424Z,52.36
2022-08-05T13:40:49.907Z,52.35
2022-08-05T13:41:36.013Z,49.87
2022-08-05T13:42:34.353Z,52.56
2022-08-05T13:43:45.235Z,51.81
2022-08-05T13:44:35.585Z,51.75
2022-08-05T13:45:38.522Z,51.01
2022-08-05T13:48:08.558Z,50.14
2022-08-05T13:48:57.137Z,51.72
2022-08-05T13:49:46.677Z,54.41
2022-08-05T13:50:46.424Z,52.4
2022-08-05T13:51:47.192Z,52.39
2022-08-05T13:52:46.513Z,52.22
2022-08-05T13:53:47.860Z,52.77
2022-08-05T13:54:53.603Z,52.63
2022-08-05T13:56:00.262Z,53.61
2022-08-05T13:56:54.122Z,53.15
2022-08-05T13:57:54.180Z,52.21
2022-08-05T13:58:54.049Z,52.63
2022-08-05T13:59:57.248Z,53.55
2022-08-05T14:00:56.452Z,60.07
2022-08-05T14:01:58.942Z,56.26
2022-08-05T14:02:57.363Z,54.88
2022-08-05T14:03:56.977Z,54.43
2022-08-05T14:04:56.993Z,55.4
2022-08-05T14:06:25.184Z,54.89
2022-08-05T14:07:24.860Z,53.56
2022-08-05T14:08:07.256Z,52.79
2022-08-05T14:09:01.381Z,53.23
2022-08-05T14:10:02.128Z,54.05
2022-08-05T14:11:19.728Z,53.66
2022-08-05T14:12:17.186Z,53.63
2022-08-05T14:13:06.111Z,52.97
2022-08-05T14:14:05.470Z,53.78
2022-08-05T14:16:09.128Z,53.23
2022-08-05T14:16:11.129Z,53.14
2022-08-05T14:17:16.737Z,54.77